createdAt,value
2019-03-11T00:02:45.153Z,99952.64
2019-03-11T00:05:35.170Z,99968.72
2019-03-11T00:08:24.453Z,99984.08
2019-03-11T00:11:14.277Z,99981.90
2019-03-11T00:14:05.824Z,99979.55
2019-03-11T00:16:55.489Z,99990.05
2019-03-11T00:19:45.285Z,99983.75
2019-03-11T00:22:35.247Z,99982.84
2019-03-11T00:25:24.981Z,99993.78
2019-03-11T00:28:14.669Z,99996.75
2019-03-11T00:31:05.035Z,100000.98
2019-03-11T00:33:55.042Z,100006.86
2019-03-11T00:36:45.091Z,100001.17
2019-03-11T00:39:34.876Z,100004.79
2019-03-11T00:42:24.564Z,99996.35
2019-03-11T00:45:15.767Z,100004.69
2019-03-11T00:48:06.006Z,100009.03
2019-03-11T00:50:55.891Z,100004.39
2019-03-11T00:53:45.998Z,99995.81
2019-03-11T00:56:36.102Z,100002.52
2019-03-11T00:59:25.709Z,99996.53
2019-03-11T01:02:15.347Z,100007.88
2019-03-11T01:05:05.872Z,100006.45
2019-03-11T01:07:55.957Z,100001.39
2019-03-11T01:10:45.847Z,100009.32
2019-03-11T01:13:35.827Z,100005.81
2019-03-11T01:16:25.695Z,100004.79
2019-03-11T01:19:15.229Z,100009.22
2019-03-11T01:22:05.234Z,100005.01
2019-03-11T01:24:55.444Z,100012.62
2019-03-11T01:27:45.107Z,100009.31
2019-03-11T01:30:34.938Z,99998.48
2019-03-11T01:33:25.003Z,99989.73
2019-03-11T01:36:15.095Z,99996.24
2019-03-11T01:39:06.367Z,100002.11
2019-03-11T01:41:56.488Z,100004.79
2019-03-11T01:44:46.320Z,100001.39
2019-03-11T01:47:36.188Z,100001.89
2019-03-11T01:50:26.255Z,99998.59
2019-03-11T01:53:16.275Z,99998.80
2019-03-11T01:56:06.143Z,99992.92
2019-03-11T01:58:56.118Z,99992.94
2019-03-11T02:01:48.290Z,99997.28
2019-03-11T02:04:37.471Z,99993.25
2019-03-11T02:07:27.353Z,99991.19
2019-03-11T02:10:17.813Z,99990.03
2019-03-11T02:13:07.676Z,99995.94
2019-03-11T02:16:09.638Z,99996.74
2019-03-11T02:18:59.428Z,99996.64
2019-03-11T02:21:49.247Z,99998.63
2019-03-11T02:24:39.157Z,99999.03
2019-03-11T02:27:29.970Z,99987.58
2019-03-11T02:30:19.885Z,99986.34
2019-03-11T02:33:09.985Z,99998.30
2019-03-11T02:36:00.130Z,99998.09
2019-03-11T02:38:50.598Z,100002.53
2019-03-11T02:41:40.865Z,100006.86
2019-03-11T02:44:30.611Z,100002.83
2019-03-11T02:47:20.538Z,100003.96
2019-03-11T02:50:10.795Z,100000.26
2019-03-11T02:53:00.587Z,99995.41
2019-03-11T02:55:51.455Z,99996.24
2019-03-11T02:58:41.351Z,99996.97
2019-03-11T03:01:50.598Z,99996.21
2019-03-11T03:04:43.643Z,99993.34
2019-03-11T03:07:33.153Z,99990.78
2019-03-11T03:10:23.305Z,99987.45
2019-03-11T03:13:13.287Z,99989.33
2019-03-11T03:16:03.297Z,99992.19
2019-03-11T03:18:52.867Z,99993.53
2019-03-11T03:21:42.439Z,99994.36
2019-03-11T03:24:31.999Z,100000.12
2019-03-11T03:27:21.842Z,100005.41
2019-03-11T03:30:17.030Z,100002.30
2019-03-11T03:33:07.166Z,100000.23
2019-03-11T03:35:56.952Z,99993.45
2019-03-11T03:38:47.141Z,99990.56
2019-03-11T03:41:37.314Z,99997.88
2019-03-11T03:44:27.924Z,99992.91
2019-03-11T03:47:17.456Z,99991.17
2019-03-11T03:50:08.226Z,99991.06
2019-03-11T03:52:58.467Z,99982.09
2019-03-11T03:55:48.039Z,99981.58
2019-03-11T03:58:37.942Z,99981.18
2019-03-11T04:01:27.963Z,99967.97
2019-03-11T04:04:17.937Z,99966.34
2019-03-11T04:07:07.984Z,99969.84
2019-03-11T04:09:57.413Z,99960.04
2019-03-11T04:12:47.327Z,99955.51
2019-03-11T04:15:37.456Z,99947.78
2019-03-11T04:18:49.697Z,99950.88
2019-03-11T04:21:39.687Z,99956.56
2019-03-11T04:24:29.823Z,99950.36
2019-03-11T04:27:20.366Z,99950.17
2019-03-11T04:30:18.183Z,99948.11
2019-03-11T04:33:08.042Z,99948.61
2019-03-11T04:35:58.590Z,99947.98
2019-03-11T04:38:48.665Z,99945.41
2019-03-11T04:41:38.392Z,99939.64
2019-03-11T04:44:28.452Z,99941.60
2019-03-11T04:47:18.475Z,99933.73
2019-03-11T04:50:10.890Z,99927.45
2019-03-11T04:53:00.835Z,99923.53
2019-03-11T04:55:51.072Z,99926.61
2019-03-11T04:58:41.115Z,99922.39
2019-03-11T05:01:32.208Z,99917.42
2019-03-11T05:04:22.398Z,99915.58
2019-03-11T05:07:12.193Z,99919.19
2019-03-11T05:10:02.167Z,99915.78
2019-03-11T05:12:52.256Z,99914.60
2019-03-11T05:15:42.236Z,99902.53
2019-03-11T05:18:32.648Z,99902.85
2019-03-11T05:21:22.719Z,99899.03
2019-03-11T05:24:13.080Z,99891.81
2019-03-11T05:27:03.249Z,99892.93
2019-03-11T05:29:52.604Z,99885.72
2019-03-11T05:32:42.422Z,99880.86
2019-03-11T05:35:32.562Z,99883.32
2019-03-11T05:38:22.440Z,99885.81
2019-03-11T05:41:12.276Z,99885.36
2019-03-11T05:44:02.385Z,99888.37
2019-03-11T05:46:52.385Z,99883.48
2019-03-11T05:49:42.593Z,99876.36
2019-03-11T05:52:32.608Z,99882.65
2019-03-11T05:55:22.868Z,99877.34
2019-03-11T05:58:12.852Z,99880.13
2019-03-11T06:01:02.749Z,99884.25
2019-03-11T06:03:52.836Z,99885.20
2019-03-11T06:06:42.774Z,99888.27
2019-03-11T06:09:32.612Z,99896.67
2019-03-11T06:12:22.994Z,99898.20
2019-03-11T06:15:14.770Z,99895.75
2019-03-11T06:18:04.372Z,99887.70
2019-03-11T06:21:15.844Z,99889.42
2019-03-11T06:24:06.097Z,99890.25
2019-03-11T06:26:56.295Z,99883.73
2019-03-11T06:29:46.137Z,99887.53
2019-03-11T06:32:35.887Z,99884.15
2019-03-11T06:35:25.912Z,99888.17
2019-03-11T06:38:15.958Z,99891.56
2019-03-11T06:41:06.301Z,99888.46
2019-03-11T06:43:56.507Z,99907.66
2019-03-11T06:46:46.477Z,99918.45
2019-03-11T06:49:36.343Z,99912.17
2019-03-11T06:52:26.056Z,99921.05
2019-03-11T06:55:16.257Z,99930.68
2019-03-11T06:58:05.961Z,99937.58
2019-03-11T07:00:55.800Z,99942.67
2019-03-11T07:03:46.236Z,99938.88
2019-03-11T07:06:36.003Z,99916.39
2019-03-11T07:09:26.365Z,99922.11
2019-03-11T07:12:16.660Z,99928.50
2019-03-11T07:15:07.892Z,99938.91
2019-03-11T07:17:57.782Z,99948.80
2019-03-11T07:20:47.168Z,99955.33
2019-03-11T07:23:37.105Z,99956.56
2019-03-11T07:26:27.000Z,99959.31
2019-03-11T07:29:17.082Z,99957.36
2019-03-11T07:32:06.916Z,99955.11
2019-03-11T07:35:07.644Z,99958.19
2019-03-11T07:37:48.519Z,99960.66
2019-03-11T07:40:38.829Z,99953.09
2019-03-11T07:43:28.849Z,99942.39
2019-03-11T07:46:19.144Z,99956.80
2019-03-11T07:49:08.924Z,99949.86
2019-03-11T07:51:58.901Z,99950.16
2019-03-11T07:54:48.897Z,99951.03
2019-03-11T07:57:39.004Z,99952.82
2019-03-11T08:00:29.178Z,99957.77
2019-03-11T08:03:19.527Z,99961.05
2019-03-11T08:06:18.072Z,99958.00
2019-03-11T08:09:02.099Z,99961.21
2019-03-11T08:11:53.394Z,99964.06
2019-03-11T08:14:43.430Z,99962.23
2019-03-11T08:17:33.506Z,99961.80
2019-03-11T08:20:23.362Z,99958.95
2019-03-11T08:23:12.891Z,99965.52
2019-03-11T08:26:02.920Z,99960.61
2019-03-11T08:28:53.001Z,99968.05
2019-03-11T08:31:43.006Z,99969.13
2019-03-11T08:34:33.286Z,99972.87
2019-03-11T08:37:23.329Z,99976.45
2019-03-11T08:40:14.694Z,99990.45
2019-03-11T08:43:04.452Z,99982.81
2019-03-11T08:45:54.256Z,99982.00
2019-03-11T08:48:44.208Z,99991.02
2019-03-11T08:51:34.722Z,99991.52
2019-03-11T08:54:24.615Z,99990.92
2019-03-11T08:57:14.628Z,99994.70
2019-03-11T09:00:05.822Z,99993.83
2019-03-11T09:02:56.037Z,99988.14
2019-03-11T09:05:46.659Z,99992.33
2019-03-11T09:08:36.607Z,99983.48
2019-03-11T09:11:26.598Z,99986.97
2019-03-11T09:14:16.457Z,99983.10
2019-03-11T09:17:07.014Z,99979.53
2019-03-11T09:19:57.041Z,99985.97
2019-03-11T09:22:47.162Z,99979.98
2019-03-11T09:25:37.509Z,99983.67
2019-03-11T09:28:27.870Z,99978.95
2019-03-11T09:31:17.550Z,99976.29
2019-03-11T09:34:07.980Z,99982.55
2019-03-11T09:36:57.523Z,99981.05
2019-03-11T09:39:47.364Z,99975.97
2019-03-11T09:42:37.267Z,99986.18
2019-03-11T09:45:27.599Z,99993.94
2019-03-11T09:48:17.408Z,100001.56
2019-03-11T09:51:07.810Z,99996.89
2019-03-11T09:53:57.801Z,100006.72
2019-03-11T09:56:47.812Z,100003.07
2019-03-11T09:59:37.953Z,99993.04
2019-03-11T10:02:28.420Z,99994.37
2019-03-11T10:05:17.927Z,99995.65
2019-03-11T10:08:07.815Z,100000.49
2019-03-11T10:10:57.321Z,99997.91
2019-03-11T10:13:47.318Z,100001.60
2019-03-11T10:16:37.157Z,99997.80
2019-03-11T10:19:26.699Z,99993.37
2019-03-11T10:22:17.321Z,99990.36
2019-03-11T10:25:08.191Z,100000.59
2019-03-11T10:27:58.105Z,99998.06
2019-03-11T10:30:49.339Z,99988.93
2019-03-11T10:33:39.276Z,99988.85
2019-03-11T10:36:29.615Z,99985.80
2019-03-11T10:39:19.429Z,99983.86
2019-03-11T10:42:09.932Z,99992.61
2019-03-11T10:44:59.750Z,99997.65
2019-03-11T10:47:49.936Z,99997.39
2019-03-11T10:50:40.221Z,100001.48
2019-03-11T10:53:31.195Z,100009.72
2019-03-11T10:56:21.411Z,100007.80
2019-03-11T10:59:11.376Z,100010.27
2019-03-11T11:02:01.724Z,100008.31
2019-03-11T11:04:52.869Z,100013.53
2019-03-11T11:07:42.975Z,100014.77
2019-03-11T11:10:33.424Z,100016.98
2019-03-11T11:13:23.665Z,100016.47
2019-03-11T11:16:13.531Z,100026.19
2019-03-11T11:19:03.498Z,100027.39
2019-03-11T11:21:53.600Z,100022.38
2019-03-11T11:24:43.475Z,100025.01
2019-03-11T11:27:33.171Z,100022.41
2019-03-11T11:30:24.285Z,100031.66
2019-03-11T11:33:14.194Z,100031.44
2019-03-11T11:36:03.981Z,100033.68
2019-03-11T11:38:53.750Z,100033.05
2019-03-11T11:41:44.062Z,100035.34
2019-03-11T11:44:33.865Z,100045.67
2019-03-11T11:47:23.746Z,100047.23
2019-03-11T11:50:16.475Z,100044.53
2019-03-11T11:53:06.211Z,100044.45
2019-03-11T11:55:58.008Z,100033.06
2019-03-11T11:58:47.454Z,100037.67
2019-03-11T12:01:37.407Z,100033.02
2019-03-11T12:04:27.392Z,100020.56
2019-03-11T12:07:17.015Z,100029.05
2019-03-11T12:10:07.750Z,100025.01
2019-03-11T12:12:57.653Z,100034.66
2019-03-11T12:15:47.193Z,100040.59
2019-03-11T12:18:36.940Z,100047.61
2019-03-11T12:21:26.889Z,100050.31
2019-03-11T12:24:17.112Z,100055.22
2019-03-11T12:27:07.562Z,100049.25
2019-03-11T12:29:58.049Z,100058.70
2019-03-11T12:32:48.487Z,100050.95
2019-03-11T12:35:38.468Z,100046.23
2019-03-11T12:38:28.898Z,100055.77
2019-03-11T12:41:19.455Z,100061.80
2019-03-11T12:44:09.530Z,100056.57
2019-03-11T12:46:59.232Z,100057.24
2019-03-11T12:49:49.480Z,100055.72
2019-03-11T12:52:39.845Z,100065.03
2019-03-11T12:55:29.959Z,100067.03
2019-03-11T12:58:20.470Z,100063.36
2019-03-11T13:01:10.086Z,100064.69
2019-03-11T13:03:59.927Z,100068.34
2019-03-11T13:06:50.083Z,100066.97
2019-03-11T13:09:40.209Z,100074.94
2019-03-11T13:12:31.526Z,100080.29
2019-03-11T13:15:22.425Z,100079.15
2019-03-11T13:18:50.964Z,100080.01
2019-03-11T13:21:42.738Z,100076.73
2019-03-11T13:24:32.609Z,100093.59
2019-03-11T13:27:22.711Z,100088.29
2019-03-11T13:30:13.718Z,100091.82
2019-03-11T13:33:03.698Z,100103.89
2019-03-11T13:35:56.633Z,100104.75
2019-03-11T13:38:45.850Z,100114.63
2019-03-11T13:41:35.802Z,100097.95
2019-03-11T13:44:26.217Z,100112.45
2019-03-11T13:47:16.191Z,100113.62
2019-03-11T13:50:08.074Z,100117.74
2019-03-11T13:52:58.083Z,100115.31
2019-03-11T13:55:47.997Z,100128.16
2019-03-11T13:58:37.823Z,100124.03
2019-03-11T14:01:27.963Z,100133.62
2019-03-11T14:04:18.235Z,100129.07
2019-03-11T14:07:07.956Z,100144.48
2019-03-11T14:09:58.058Z,100135.63
2019-03-11T14:12:47.692Z,100149.03
2019-03-11T14:15:37.160Z,100151.01
2019-03-11T14:18:27.363Z,100142.62
2019-03-11T14:21:25.302Z,100153.84
2019-03-11T14:24:09.171Z,100161.51
2019-03-11T14:26:59.694Z,100155.09
2019-03-11T14:29:49.554Z,100163.77
2019-03-11T14:32:39.834Z,100174.77
2019-03-11T14:35:29.520Z,100169.37
2019-03-11T14:38:19.110Z,100174.48
2019-03-11T14:41:08.957Z,100179.96
2019-03-11T14:44:00.899Z,100175.03
2019-03-11T14:46:50.393Z,100188.49
2019-03-11T14:49:40.256Z,100177.91
2019-03-11T14:52:30.252Z,100186.98
2019-03-11T14:55:20.671Z,100187.92
2019-03-11T14:58:10.778Z,100189.44
2019-03-11T15:01:01.026Z,100184.05
2019-03-11T15:03:50.985Z,100187.36
2019-03-11T15:06:40.968Z,100181.69
2019-03-11T15:09:31.149Z,100193.58
2019-03-11T15:12:21.498Z,100188.63
2019-03-11T15:15:14.497Z,100196.70
2019-03-11T15:18:13.530Z,100199.95
2019-03-11T15:21:04.502Z,100192.30
2019-03-11T15:23:54.689Z,100195.33
2019-03-11T15:26:44.724Z,100190.89
2019-03-11T15:29:34.353Z,100196.91
2019-03-11T15:32:24.177Z,100202.75
2019-03-11T15:35:14.543Z,100193.70
2019-03-11T15:38:04.622Z,100200.58
2019-03-11T15:40:55.200Z,100202.61
2019-03-11T15:43:45.343Z,100204.81
2019-03-11T15:46:39.466Z,100206.67
2019-03-11T15:49:27.371Z,100206.45
2019-03-11T15:52:16.966Z,100205.33
2019-03-11T15:55:07.481Z,100197.48
2019-03-11T15:57:57.803Z,100212.44
2019-03-11T16:00:47.796Z,100202.50
2019-03-11T16:03:37.458Z,100206.80
2019-03-11T16:06:27.454Z,100210.89
2019-03-11T16:09:19.691Z,100213.95
2019-03-11T16:12:09.604Z,100212.98
2019-03-11T16:14:59.307Z,100216.84
2019-03-11T16:17:49.394Z,100218.90
2019-03-11T16:20:39.760Z,100226.19
2019-03-11T16:23:29.692Z,100237.19
2019-03-11T16:26:19.914Z,100232.25
2019-03-11T16:29:10.480Z,100241.94
2019-03-11T16:32:00.388Z,100235.69
2019-03-11T16:34:50.800Z,100248.81
2019-03-11T16:37:40.711Z,100254.42
2019-03-11T16:40:30.832Z,100251.98
2019-03-11T16:43:20.536Z,100254.25
2019-03-11T16:46:10.853Z,100253.02
2019-03-11T16:49:00.755Z,100248.91
2019-03-11T16:51:50.781Z,100265.56
2019-03-11T16:54:40.597Z,100269.78
2019-03-11T16:57:30.500Z,100264.65
2019-03-11T17:00:24.821Z,100268.48
2019-03-11T17:03:14.757Z,100266.95
2019-03-11T17:06:05.779Z,100271.16
2019-03-11T17:08:57.205Z,100272.06
2019-03-11T17:11:47.067Z,100268.95
2019-03-11T17:14:37.081Z,100272.43
2019-03-11T17:17:27.222Z,100280.08
2019-03-11T17:20:17.754Z,100281.30
2019-03-11T17:23:07.659Z,100277.56
2019-03-11T17:25:57.840Z,100280.55
2019-03-11T17:28:47.812Z,100285.18
2019-03-11T17:31:38.115Z,100291.56
2019-03-11T17:34:29.541Z,100290.10
2019-03-11T17:37:19.664Z,100290.64
2019-03-11T17:40:12.547Z,100293.59
2019-03-11T17:43:02.438Z,100302.27
2019-03-11T17:45:52.133Z,100313.32
2019-03-11T17:48:42.849Z,100317.25
2019-03-11T17:51:33.426Z,100322.29
2019-03-11T17:54:23.217Z,100328.48
2019-03-11T17:57:14.072Z,100327.47
2019-03-11T18:00:06.245Z,100323.33
2019-03-11T18:03:00.375Z,100322.37
2019-03-11T18:05:49.850Z,100321.43
2019-03-11T18:08:39.855Z,100333.92
2019-03-11T18:11:30.573Z,100325.52
2019-03-11T18:14:22.241Z,100335.41
2019-03-11T18:17:12.014Z,100337.70
2019-03-11T18:20:01.462Z,100337.26
2019-03-11T18:22:51.665Z,100339.25
2019-03-11T18:25:44.067Z,100335.83
2019-03-11T18:28:34.170Z,100336.84
2019-03-11T18:31:24.601Z,100336.57
2019-03-11T18:34:14.947Z,100334.64
2019-03-11T18:37:04.734Z,100342.23
2019-03-11T18:39:56.017Z,100351.73
2019-03-11T18:42:45.898Z,100344.70
2019-03-11T18:45:36.202Z,100350.99
2019-03-11T18:48:26.355Z,100347.69
2019-03-11T18:51:16.375Z,100351.83
2019-03-11T18:54:06.659Z,100353.88
2019-03-11T18:56:56.630Z,100354.63
2019-03-11T18:59:46.711Z,100354.80
2019-03-11T19:02:36.883Z,100359.16
2019-03-11T19:05:27.223Z,100364.04
2019-03-11T19:08:17.259Z,100363.33
2019-03-11T19:11:07.136Z,100373.79
2019-03-11T19:13:56.791Z,100366.97
2019-03-11T19:16:46.555Z,100377.48
2019-03-11T19:19:45.592Z,100383.56
2019-03-11T19:22:27.717Z,100381.27
2019-03-11T19:25:17.604Z,100388.69
2019-03-11T19:28:07.496Z,100390.14
2019-03-11T19:30:57.440Z,100395.30
2019-03-11T19:33:47.856Z,100396.88
2019-03-11T19:36:37.976Z,100403.59
2019-03-11T19:39:28.113Z,100408.33
2019-03-11T19:42:18.132Z,100413.19
2019-03-11T19:45:09.257Z,100413.45
2019-03-11T19:47:59.178Z,100415.00
2019-03-11T19:50:49.101Z,100414.49
2019-03-11T19:53:39.009Z,100421.42
2019-03-11T19:56:29.675Z,100425.11
2019-03-11T19:59:19.793Z,100429.55
2019-03-11T20:02:09.596Z,100441.91
2019-03-11T20:04:59.513Z,100440.98
2019-03-11T20:07:49.675Z,100452.09
2019-03-11T20:10:40.764Z,100453.18
2019-03-11T20:13:31.080Z,100464.03
2019-03-11T20:16:21.573Z,100467.04
2019-03-11T20:19:11.651Z,100472.48
2019-03-11T20:22:01.102Z,100478.80
2019-03-11T20:24:50.446Z,100484.48
2019-03-11T20:27:40.411Z,100501.77
2019-03-11T20:30:30.506Z,100493.48
2019-03-11T20:33:20.329Z,100499.80
2019-03-11T20:36:20.258Z,100499.61
2019-03-11T20:39:01.878Z,100494.96
2019-03-11T20:41:53.452Z,100509.03
2019-03-11T20:44:43.862Z,100513.05
2019-03-11T20:47:33.646Z,100516.97
2019-03-11T20:50:23.464Z,100517.07
2019-03-11T20:53:13.446Z,100514.72
2019-03-11T20:56:03.704Z,100520.86
2019-03-11T20:58:53.971Z,100530.88
2019-03-11T21:01:44.087Z,100540.25
2019-03-11T21:04:33.869Z,100546.54
2019-03-11T21:07:24.423Z,100545.87
2019-03-11T21:10:16.215Z,100549.69
2019-03-11T21:13:07.114Z,100552.37
2019-03-11T21:15:58.633Z,100559.06
2019-03-11T21:18:52.078Z,100566.60
2019-03-11T21:21:42.098Z,100574.11
2019-03-11T21:24:32.381Z,100573.60
2019-03-11T21:27:22.241Z,100569.58
2019-03-11T21:30:18.310Z,100572.90
2019-03-11T21:33:08.357Z,100586.43
2019-03-11T21:35:57.996Z,100597.79
2019-03-11T21:38:48.326Z,100598.33
2019-03-11T21:41:38.606Z,100605.02
2019-03-11T21:44:28.559Z,100607.30
2019-03-11T21:47:18.374Z,100613.36
2019-03-11T21:50:10.904Z,100626.06
2019-03-11T21:53:00.547Z,100619.23
2019-03-11T21:55:51.252Z,100632.70
2019-03-11T21:58:41.109Z,100636.61
2019-03-11T22:01:31.860Z,100639.94
2019-03-11T22:04:25.877Z,100648.00
2019-03-11T22:07:15.804Z,100658.97
2019-03-11T22:10:06.434Z,100656.05
2019-03-11T22:12:56.413Z,100667.17
2019-03-11T22:15:46.859Z,100673.03
2019-03-11T22:18:36.666Z,100669.55
2019-03-11T22:21:26.503Z,100667.17
2019-03-11T22:24:16.461Z,100677.53
2019-03-11T22:27:07.258Z,100684.80
2019-03-11T22:29:57.164Z,100694.13
2019-03-11T22:32:47.545Z,100701.50
2019-03-11T22:35:41.559Z,100710.04
2019-03-11T22:38:32.868Z,100714.34
2019-03-11T22:41:23.335Z,100713.92
2019-03-11T22:44:16.099Z,100714.89
2019-03-11T22:47:05.982Z,100725.22
2019-03-11T22:49:56.331Z,100737.14
2019-03-11T22:52:46.646Z,100749.18
2019-03-11T22:55:39.048Z,100754.98
2019-03-11T22:58:28.480Z,100758.59
2019-03-11T23:01:20.763Z,100765.87
2019-03-11T23:04:12.729Z,100777.94
2019-03-11T23:07:02.958Z,100783.13
2019-03-11T23:09:53.277Z,100789.27
2019-03-11T23:12:43.407Z,100795.20
2019-03-11T23:15:33.732Z,100797.31
2019-03-11T23:18:23.603Z,100809.69
2019-03-11T23:21:13.609Z,100815.05
2019-03-11T23:24:03.451Z,100817.73
2019-03-11T23:26:54.251Z,100822.81
2019-03-11T23:29:43.662Z,100829.70
2019-03-11T23:32:34.698Z,100837.25
2019-03-11T23:35:24.981Z,100837.89
2019-03-11T23:38:15.156Z,100845.30
2019-03-11T23:41:04.952Z,100852.98
2019-03-11T23:43:55.009Z,100853.00
2019-03-11T23:46:45.471Z,100848.17
2019-03-11T23:49:35.268Z,100853.64
2019-03-11T23:52:25.162Z,100855.41
2019-03-11T23:55:15.026Z,100855.24
2019-03-11T23:58:05.236Z,100864.01
